Terminal Aerodrome Forecast
Issued by NWS

Home | Current Version | Previous Version | Text Only | Print | Product List | Glossary On
Versions: 1 2 3 4 5 6 7 8 9 10 11 12 13 14 15
294
FTUS44 KLIX 181143
TAFGPT
TAF
KGPT 181143Z 1812/1912 29003KT P6SM SKC
     FM181800 28006KT P6SM VCTS SCT030CB
     FM182100 25006KT P6SM BKN030 PROB30 1821/1824 4SM -TSRA
      OVC040CB
     FM190100 24005KT P6SM SCT200=

USA.gov is the U.S. government's official web portal to all federal, state and local government web resources and services.